sensor_id;sensor_type;location;lat;lon;timestamp;pressure;altitude;pressure_sealevel;temperature;humidity
70916;BME280;58557;50.982;-3.222;2023-07-13T00:01:39;100846.68;;;18.48;56.28
70916;BME280;58557;50.982;-3.222;2023-07-13T00:04:04;100846.99;;;18.76;55.92
70916;BME280;58557;50.982;-3.222;2023-07-13T00:06:30;100840.94;;;17.86;57.73
70916;BME280;58557;50.982;-3.222;2023-07-13T00:08:56;100840.41;;;17.80;59.62
70916;BME280;58557;50.982;-3.222;2023-07-13T00:11:22;100840.11;;;17.57;60.43
70916;BME280;58557;50.982;-3.222;2023-07-13T00:13:47;100838.07;;;18.16;59.16
70916;BME280;58557;50.982;-3.222;2023-07-13T00:16:13;100837.92;;;17.64;59.71
70916;BME280;58557;50.982;-3.222;2023-07-13T00:18:38;100842.11;;;17.78;59.55
70916;BME280;58557;50.982;-3.222;2023-07-13T00:21:04;100839.28;;;17.54;59.47
70916;BME280;58557;50.982;-3.222;2023-07-13T00:23:29;100836.73;;;17.90;59.73
70916;BME280;58557;50.982;-3.222;2023-07-13T00:25:55;100833.24;;;18.20;57.80
70916;BME280;58557;50.982;-3.222;2023-07-13T00:28:21;100834.89;;;17.96;59.53
70916;BME280;58557;50.982;-3.222;2023-07-13T00:30:46;100835.19;;;17.01;61.47
70916;BME280;58557;50.982;-3.222;2023-07-13T00:33:12;100833.37;;;18.13;58.53
70916;BME280;58557;50.982;-3.222;2023-07-13T00:35:37;100837.36;;;16.52;62.95
70916;BME280;58557;50.982;-3.222;2023-07-13T00:38:03;100834.49;;;17.42;61.33
70916;BME280;58557;50.982;-3.222;2023-07-13T00:40:29;100835.74;;;17.15;61.29
70916;BME280;58557;50.982;-3.222;2023-07-13T00:42:57;100831.74;;;17.70;60.69
70916;BME280;58557;50.982;-3.222;2023-07-13T00:47:46;100832.23;;;15.94;63.95
70916;BME280;58557;50.982;-3.222;2023-07-13T00:50:14;100831.22;;;16.72;61.91
70916;BME280;58557;50.982;-3.222;2023-07-13T00:52:39;100834.46;;;16.64;63.77
70916;BME280;58557;50.982;-3.222;2023-07-13T00:55:04;100827.42;;;17.62;60.36
70916;BME280;58557;50.982;-3.222;2023-07-13T00:57:28;100834.16;;;17.37;62.91
70916;BME280;58557;50.982;-3.222;2023-07-13T00:59:57;100835.50;;;17.22;61.35
70916;BME280;58557;50.982;-3.222;2023-07-13T01:02:20;100836.85;;;17.13;62.54
70916;BME280;58557;50.982;-3.222;2023-07-13T01:04:46;100831.86;;;16.32;63.26
70916;BME280;58557;50.982;-3.222;2023-07-13T01:07:12;100828.49;;;17.35;61.58
70916;BME280;58557;50.982;-3.222;2023-07-13T01:09:37;100827.09;;;17.26;61.17
70916;BME280;58557;50.982;-3.222;2023-07-13T01:12:03;100829.49;;;17.60;59.80
70916;BME280;58557;50.982;-3.222;2023-07-13T01:14:28;100827.67;;;17.67;60.67
70916;BME280;58557;50.982;-3.222;2023-07-13T01:16:54;100830.93;;;16.64;62.89
70916;BME280;58557;50.982;-3.222;2023-07-13T01:19:29;100831.23;;;18.16;58.60
70916;BME280;58557;50.982;-3.222;2023-07-13T01:21:50;100835.39;;;17.51;61.31
70916;BME280;58557;50.982;-3.222;2023-07-13T01:24:11;100834.21;;;16.27;64.30
70916;BME280;58557;50.982;-3.222;2023-07-13T01:26:36;100835.50;;;16.95;61.73
70916;BME280;58557;50.982;-3.222;2023-07-13T01:29:02;100837.72;;;17.21;62.18
70916;BME280;58557;50.982;-3.222;2023-07-13T01:31:27;100837.81;;;17.25;61.35
70916;BME280;58557;50.982;-3.222;2023-07-13T01:33:53;100836.71;;;17.15;61.36
70916;BME280;58557;50.982;-3.222;2023-07-13T01:36:19;100835.42;;;17.84;58.68
70916;BME280;58557;50.982;-3.222;2023-07-13T01:38:45;100840.76;;;17.99;57.42
70916;BME280;58557;50.982;-3.222;2023-07-13T01:41:10;100840.12;;;18.17;57.35
70916;BME280;58557;50.982;-3.222;2023-07-13T01:43:36;100832.33;;;17.57;59.44
70916;BME280;58557;50.982;-3.222;2023-07-13T01:46:02;100832.49;;;18.63;55.97
70916;BME280;58557;50.982;-3.222;2023-07-13T01:48:27;100835.33;;;18.14;56.53
70916;BME280;58557;50.982;-3.222;2023-07-13T01:50:53;100833.33;;;18.62;54.59
70916;BME280;58557;50.982;-3.222;2023-07-13T01:53:19;100830.50;;;19.19;53.34
70916;BME280;58557;50.982;-3.222;2023-07-13T01:55:45;100830.60;;;19.61;53.07
70916;BME280;58557;50.982;-3.222;2023-07-13T01:58:10;100833.73;;;17.64;56.43
70916;BME280;58557;50.982;-3.222;2023-07-13T02:00:36;100832.13;;;17.43;58.69
70916;BME280;58557;50.982;-3.222;2023-07-13T02:03:02;100827.87;;;18.09;56.59
70916;BME280;58557;50.982;-3.222;2023-07-13T02:05:27;100826.12;;;17.68;57.09
70916;BME280;58557;50.982;-3.222;2023-07-13T02:07:53;100825.85;;;18.95;55.93
70916;BME280;58557;50.982;-3.222;2023-07-13T02:10:19;100828.24;;;18.84;55.59
70916;BME280;58557;50.982;-3.222;2023-07-13T02:12:45;100827.06;;;18.60;55.69
70916;BME280;58557;50.982;-3.222;2023-07-13T02:15:10;100828.28;;;18.52;55.17
70916;BME280;58557;50.982;-3.222;2023-07-13T02:17:36;100826.29;;;18.78;54.92
70916;BME280;58557;50.982;-3.222;2023-07-13T02:20:01;100822.67;;;18.48;56.10
70916;BME280;58557;50.982;-3.222;2023-07-13T02:22:27;100818.18;;;18.22;57.03
70916;BME280;58557;50.982;-3.222;2023-07-13T02:24:53;100816.17;;;18.43;55.61
70916;BME280;58557;50.982;-3.222;2023-07-13T02:27:19;100818.83;;;17.67;59.18
70916;BME280;58557;50.982;-3.222;2023-07-13T02:29:44;100816.67;;;18.67;55.62
70916;BME280;58557;50.982;-3.222;2023-07-13T02:32:10;100819.18;;;18.48;56.09
70916;BME280;58557;50.982;-3.222;2023-07-13T02:34:36;100816.49;;;17.97;57.91
70916;BME280;58557;50.982;-3.222;2023-07-13T02:37:02;100814.10;;;18.37;57.51
70916;BME280;58557;50.982;-3.222;2023-07-13T02:39:27;100812.63;;;19.14;54.86
70916;BME280;58557;50.982;-3.222;2023-07-13T02:41:53;100814.00;;;19.23;54.49
70916;BME280;58557;50.982;-3.222;2023-07-13T02:44:19;100817.17;;;19.03;53.93
70916;BME280;58557;50.982;-3.222;2023-07-13T02:46:44;100811.44;;;19.11;54.25
70916;BME280;58557;50.982;-3.222;2023-07-13T02:49:10;100808.79;;;18.30;55.76
70916;BME280;58557;50.982;-3.222;2023-07-13T02:51:36;100804.40;;;19.15;54.92
70916;BME280;58557;50.982;-3.222;2023-07-13T02:54:02;100808.95;;;19.42;53.51
70916;BME280;58557;50.982;-3.222;2023-07-13T02:56:28;100806.99;;;18.17;55.79
70916;BME280;58557;50.982;-3.222;2023-07-13T02:58:53;100807.75;;;19.26;54.04
70916;BME280;58557;50.982;-3.222;2023-07-13T03:01:18;100811.81;;;19.00;54.18
70916;BME280;58557;50.982;-3.222;2023-07-13T03:03:44;100815.16;;;19.18;53.43
70916;BME280;58557;50.982;-3.222;2023-07-13T03:06:10;100813.69;;;19.80;52.75
70916;BME280;58557;50.982;-3.222;2023-07-13T03:08:35;100811.16;;;19.73;52.23
70916;BME280;58557;50.982;-3.222;2023-07-13T03:11:02;100808.83;;;18.77;54.38
70916;BME280;58557;50.982;-3.222;2023-07-13T03:13:26;100813.19;;;19.18;53.76
70916;BME280;58557;50.982;-3.222;2023-07-13T03:15:52;100810.33;;;19.41;53.00
70916;BME280;58557;50.982;-3.222;2023-07-13T03:18:18;100808.05;;;19.46;53.10
70916;BME280;58557;50.982;-3.222;2023-07-13T03:20:43;100810.35;;;19.68;52.25
70916;BME280;58557;50.982;-3.222;2023-07-13T03:23:09;100809.89;;;19.50;52.75
70916;BME280;58557;50.982;-3.222;2023-07-13T03:25:35;100809.81;;;19.68;51.73
70916;BME280;58557;50.982;-3.222;2023-07-13T03:28:01;100814.51;;;20.09;51.59
70916;BME280;58557;50.982;-3.222;2023-07-13T03:30:26;100810.96;;;19.75;51.86
70916;BME280;58557;50.982;-3.222;2023-07-13T03:32:52;100815.10;;;20.09;52.25
70916;BME280;58557;50.982;-3.222;2023-07-13T03:35:18;100809.93;;;20.34;50.77
70916;BME280;58557;50.982;-3.222;2023-07-13T03:37:43;100809.85;;;20.38;50.20
70916;BME280;58557;50.982;-3.222;2023-07-13T03:40:10;100813.40;;;19.28;52.24
70916;BME280;58557;50.982;-3.222;2023-07-13T03:42:35;100812.68;;;20.42;49.99
70916;BME280;58557;50.982;-3.222;2023-07-13T03:45:00;100820.75;;;18.97;52.31
70916;BME280;58557;50.982;-3.222;2023-07-13T03:47:26;100820.18;;;18.87;53.86
70916;BME280;58557;50.982;-3.222;2023-07-13T03:49:51;100822.28;;;19.63;51.68
70916;BME280;58557;50.982;-3.222;2023-07-13T03:52:17;100826.04;;;20.17;50.60
70916;BME280;58557;50.982;-3.222;2023-07-13T03:54:42;100828.12;;;20.21;50.48
70916;BME280;58557;50.982;-3.222;2023-07-13T03:57:08;100829.48;;;20.54;50.28
70916;BME280;58557;50.982;-3.222;2023-07-13T03:59:34;100830.50;;;20.12;51.69
70916;BME280;58557;50.982;-3.222;2023-07-13T04:02:00;100829.45;;;20.80;49.61
70916;BME280;58557;50.982;-3.222;2023-07-13T04:04:25;100829.06;;;20.13;50.76
70916;BME280;58557;50.982;-3.222;2023-07-13T04:06:51;100830.56;;;20.01;51.53
70916;BME280;58557;50.982;-3.222;2023-07-13T04:09:16;100829.73;;;20.06;51.39
70916;BME280;58557;50.982;-3.222;2023-07-13T04:11:43;100830.63;;;19.89;52.27
70916;BME280;58557;50.982;-3.222;2023-07-13T04:14:07;100834.71;;;19.58;53.50
70916;BME280;58557;50.982;-3.222;2023-07-13T04:16:33;100831.57;;;19.74;53.04
70916;BME280;58557;50.982;-3.222;2023-07-13T04:18:58;100832.98;;;19.66;53.86
70916;BME280;58557;50.982;-3.222;2023-07-13T04:21:24;100833.17;;;18.66;56.87
70916;BME280;58557;50.982;-3.222;2023-07-13T04:23:50;100836.26;;;19.44;55.03
70916;BME280;58557;50.982;-3.222;2023-07-13T04:26:15;100837.18;;;19.75;53.46
70916;BME280;58557;50.982;-3.222;2023-07-13T04:28:41;100839.72;;;19.61;53.25
70916;BME280;58557;50.982;-3.222;2023-07-13T04:31:07;100836.53;;;19.70;53.40
70916;BME280;58557;50.982;-3.222;2023-07-13T04:33:33;100836.90;;;19.58;53.95
70916;BME280;58557;50.982;-3.222;2023-07-13T04:35:58;100845.91;;;19.29;53.37
70916;BME280;58557;50.982;-3.222;2023-07-13T04:38:26;100847.35;;;19.61;52.62
70916;BME280;58557;50.982;-3.222;2023-07-13T04:40:50;100846.27;;;20.22;52.69
70916;BME280;58557;50.982;-3.222;2023-07-13T04:43:15;100844.80;;;19.95;52.45
70916;BME280;58557;50.982;-3.222;2023-07-13T04:45:41;100847.98;;;20.06;52.85
70916;BME280;58557;50.982;-3.222;2023-07-13T04:48:07;100849.43;;;20.11;53.43
70916;BME280;58557;50.982;-3.222;2023-07-13T04:50:32;100851.96;;;19.43;53.67
70916;BME280;58557;50.982;-3.222;2023-07-13T04:52:58;100849.30;;;19.49;55.04
70916;BME280;58557;50.982;-3.222;2023-07-13T04:55:23;100852.55;;;19.71;54.91
70916;BME280;58557;50.982;-3.222;2023-07-13T04:57:49;100855.14;;;19.22;55.38
70916;BME280;58557;50.982;-3.222;2023-07-13T05:00:15;100854.63;;;19.25;55.08
70916;BME280;58557;50.982;-3.222;2023-07-13T05:02:42;100856.08;;;19.20;55.78
70916;BME280;58557;50.982;-3.222;2023-07-13T05:05:07;100857.00;;;19.03;55.45
70916;BME280;58557;50.982;-3.222;2023-07-13T05:07:32;100859.59;;;19.63;53.47
70916;BME280;58557;50.982;-3.222;2023-07-13T05:09:57;100861.52;;;19.46;54.06
70916;BME280;58557;50.982;-3.222;2023-07-13T05:12:23;100854.14;;;18.97;54.54
70916;BME280;58557;50.982;-3.222;2023-07-13T05:14:48;100849.64;;;19.12;56.08
70916;BME280;58557;50.982;-3.222;2023-07-13T05:17:14;100853.36;;;19.45;54.87
70916;BME280;58557;50.982;-3.222;2023-07-13T05:19:40;100855.94;;;19.57;54.31
70916;BME280;58557;50.982;-3.222;2023-07-13T05:22:06;100851.46;;;19.94;54.50
70916;BME280;58557;50.982;-3.222;2023-07-13T05:24:31;100852.89;;;20.32;53.10
70916;BME280;58557;50.982;-3.222;2023-07-13T05:26:57;100852.16;;;20.59;52.42
70916;BME280;58557;50.982;-3.222;2023-07-13T05:29:23;100860.82;;;19.21;54.44
70916;BME280;58557;50.982;-3.222;2023-07-13T05:31:49;100859.44;;;19.43;54.64
70916;BME280;58557;50.982;-3.222;2023-07-13T05:34:14;100856.16;;;18.90;55.90
70916;BME280;58557;50.982;-3.222;2023-07-13T05:36:40;100861.71;;;19.14;54.02
70916;BME280;58557;50.982;-3.222;2023-07-13T05:39:05;100862.40;;;20.01;53.19
70916;BME280;58557;50.982;-3.222;2023-07-13T05:41:31;100867.21;;;19.05;56.04
70916;BME280;58557;50.982;-3.222;2023-07-13T05:43:57;100868.28;;;19.19;54.94
70916;BME280;58557;50.982;-3.222;2023-07-13T05:46:22;100874.41;;;20.24;53.59
70916;BME280;58557;50.982;-3.222;2023-07-13T05:48:48;100880.45;;;20.33;52.96
70916;BME280;58557;50.982;-3.222;2023-07-13T05:51:14;100886.94;;;19.73;53.91
70916;BME280;58557;50.982;-3.222;2023-07-13T05:53:39;100886.90;;;20.64;52.49
70916;BME280;58557;50.982;-3.222;2023-07-13T05:56:05;100890.39;;;20.21;53.91
70916;BME280;58557;50.982;-3.222;2023-07-13T05:58:31;100896.20;;;19.46;54.17
70916;BME280;58557;50.982;-3.222;2023-07-13T06:01:02;100895.94;;;20.38;52.27
70916;BME280;58557;50.982;-3.222;2023-07-13T06:03:22;100896.79;;;20.15;53.81
70916;BME280;58557;50.982;-3.222;2023-07-13T06:05:48;100897.22;;;20.64;51.88
70916;BME280;58557;50.982;-3.222;2023-07-13T06:08:13;100902.35;;;19.23;55.00
70916;BME280;58557;50.982;-3.222;2023-07-13T06:10:39;100896.70;;;19.73;54.36
70916;BME280;58557;50.982;-3.222;2023-07-13T06:13:04;100899.79;;;19.59;53.38
70916;BME280;58557;50.982;-3.222;2023-07-13T06:15:30;100895.46;;;20.28;52.08
70916;BME280;58557;50.982;-3.222;2023-07-13T06:17:56;100894.83;;;19.91;52.55
70916;BME280;58557;50.982;-3.222;2023-07-13T06:20:21;100899.86;;;20.45;51.84
70916;BME280;58557;50.982;-3.222;2023-07-13T06:22:47;100901.36;;;21.08;50.37
70916;BME280;58557;50.982;-3.222;2023-07-13T06:25:12;100911.24;;;20.76;50.67
70916;BME280;58557;50.982;-3.222;2023-07-13T06:27:38;100917.91;;;20.92;50.91
70916;BME280;58557;50.982;-3.222;2023-07-13T06:30:04;100921.74;;;20.54;50.64
70916;BME280;58557;50.982;-3.222;2023-07-13T06:32:29;100921.19;;;19.48;54.12
70916;BME280;58557;50.982;-3.222;2023-07-13T06:34:54;100926.46;;;20.61;51.97
70916;BME280;58557;50.982;-3.222;2023-07-13T06:37:20;100927.83;;;20.15;52.45
70916;BME280;58557;50.982;-3.222;2023-07-13T06:39:46;100923.00;;;20.59;52.01
70916;BME280;58557;50.982;-3.222;2023-07-13T06:42:11;100926.87;;;18.90;55.56
70916;BME280;58557;50.982;-3.222;2023-07-13T06:44:37;100934.37;;;19.48;55.34
70916;BME280;58557;50.982;-3.222;2023-07-13T06:47:02;100938.48;;;19.59;55.16
70916;BME280;58557;50.982;-3.222;2023-07-13T06:49:28;100937.59;;;19.61;54.51
70916;BME280;58557;50.982;-3.222;2023-07-13T06:51:54;100937.01;;;19.57;54.42
70916;BME280;58557;50.982;-3.222;2023-07-13T06:54:19;100938.15;;;19.94;53.18
70916;BME280;58557;50.982;-3.222;2023-07-13T06:56:45;100941.17;;;21.13;50.53
70916;BME280;58557;50.982;-3.222;2023-07-13T06:59:10;100939.99;;;19.31;54.08
70916;BME280;58557;50.982;-3.222;2023-07-13T07:01:36;100938.37;;;20.40;52.77
70916;BME280;58557;50.982;-3.222;2023-07-13T07:04:03;100941.05;;;20.62;52.14
70916;BME280;58557;50.982;-3.222;2023-07-13T07:06:27;100941.40;;;19.61;55.05
70916;BME280;58557;50.982;-3.222;2023-07-13T07:08:53;100947.90;;;19.57;55.75
70916;BME280;58557;50.982;-3.222;2023-07-13T07:11:21;100953.99;;;20.16;53.14
70916;BME280;58557;50.982;-3.222;2023-07-13T07:13:44;100958.11;;;20.78;51.31
70916;BME280;58557;50.982;-3.222;2023-07-13T07:16:10;100961.77;;;21.23;50.21
70916;BME280;58557;50.982;-3.222;2023-07-13T07:18:36;100958.27;;;21.28;50.82
70916;BME280;58557;50.982;-3.222;2023-07-13T07:21:01;100956.07;;;20.60;51.33
70916;BME280;58557;50.982;-3.222;2023-07-13T07:23:27;100953.59;;;21.58;49.23
70916;BME280;58557;50.982;-3.222;2023-07-13T07:25:52;100953.27;;;21.34;49.36
70916;BME280;58557;50.982;-3.222;2023-07-13T07:28:18;100950.49;;;18.49;55.79
70916;BME280;58557;50.982;-3.222;2023-07-13T07:30:44;100950.92;;;21.19;50.69
70916;BME280;58557;50.982;-3.222;2023-07-13T07:33:09;100954.52;;;21.91;48.92
70916;BME280;58557;50.982;-3.222;2023-07-13T07:35:34;100956.57;;;21.40;49.85
70916;BME280;58557;50.982;-3.222;2023-07-13T07:37:59;100953.54;;;20.37;51.69
70916;BME280;58557;50.982;-3.222;2023-07-13T07:40:25;100950.24;;;20.35;51.69
70916;BME280;58557;50.982;-3.222;2023-07-13T07:42:51;100946.75;;;21.29;49.99
70916;BME280;58557;50.982;-3.222;2023-07-13T07:45:16;100950.18;;;19.46;52.62
70916;BME280;58557;50.982;-3.222;2023-07-13T07:47:42;100955.65;;;21.80;49.12
70916;BME280;58557;50.982;-3.222;2023-07-13T07:50:09;100955.47;;;22.24;47.21
70916;BME280;58557;50.982;-3.222;2023-07-13T07:52:33;100959.37;;;21.15;49.27
70916;BME280;58557;50.982;-3.222;2023-07-13T07:54:58;100967.42;;;21.93;48.33
70916;BME280;58557;50.982;-3.222;2023-07-13T07:57:24;100970.04;;;22.28;46.47
70916;BME280;58557;50.982;-3.222;2023-07-13T07:59:50;100965.33;;;21.69;47.88
70916;BME280;58557;50.982;-3.222;2023-07-13T08:02:15;100966.06;;;20.16;50.98
70916;BME280;58557;50.982;-3.222;2023-07-13T08:04:41;100973.19;;;19.98;52.05
70916;BME280;58557;50.982;-3.222;2023-07-13T08:07:08;100968.93;;;21.32;48.82
70916;BME280;58557;50.982;-3.222;2023-07-13T08:09:32;100971.58;;;21.31;49.08
70916;BME280;58557;50.982;-3.222;2023-07-13T08:11:58;100966.51;;;21.27;48.98
70916;BME280;58557;50.982;-3.222;2023-07-13T08:14:23;100966.72;;;21.39;48.00
70916;BME280;58557;50.982;-3.222;2023-07-13T08:16:49;100959.67;;;21.45;47.38
70916;BME280;58557;50.982;-3.222;2023-07-13T08:19:14;100960.25;;;21.96;46.88
70916;BME280;58557;50.982;-3.222;2023-07-13T08:21:40;100962.07;;;22.45;45.72
70916;BME280;58557;50.982;-3.222;2023-07-13T08:24:06;100954.59;;;21.70;46.28
70916;BME280;58557;50.982;-3.222;2023-07-13T08:26:31;100955.45;;;21.93;44.78
70916;BME280;58557;50.982;-3.222;2023-07-13T08:28:57;100954.00;;;21.77;46.99
70916;BME280;58557;50.982;-3.222;2023-07-13T08:31:22;100953.44;;;21.61;47.16
70916;BME280;58557;50.982;-3.222;2023-07-13T08:33:48;100960.29;;;22.12;45.68
70916;BME280;58557;50.982;-3.222;2023-07-13T08:36:14;100952.53;;;21.13;47.67
70916;BME280;58557;50.982;-3.222;2023-07-13T08:38:39;100953.49;;;20.67;49.71
70916;BME280;58557;50.982;-3.222;2023-07-13T08:41:12;100956.30;;;21.19;49.30
70916;BME280;58557;50.982;-3.222;2023-07-13T08:43:35;100954.25;;;22.10;47.15
70916;BME280;58557;50.982;-3.222;2023-07-13T08:46:02;100957.56;;;21.61;46.79
70916;BME280;58557;50.982;-3.222;2023-07-13T08:48:25;100954.97;;;22.16;46.84
70916;BME280;58557;50.982;-3.222;2023-07-13T08:50:51;100949.48;;;21.48;47.35
70916;BME280;58557;50.982;-3.222;2023-07-13T08:53:14;100952.24;;;21.65;45.62
70916;BME280;58557;50.982;-3.222;2023-07-13T08:55:38;100954.84;;;23.59;44.72
70916;BME280;58557;50.982;-3.222;2023-07-13T08:58:09;100957.66;;;25.03;40.54
70916;BME280;58557;50.982;-3.222;2023-07-13T09:00:37;100967.87;;;23.02;42.38
70916;BME280;58557;50.982;-3.222;2023-07-13T09:02:57;100961.94;;;22.18;43.17
70916;BME280;58557;50.982;-3.222;2023-07-13T09:05:25;100963.06;;;22.67;41.85
70916;BME280;58557;50.982;-3.222;2023-07-13T09:10:17;100967.76;;;21.36;43.36
70916;BME280;58557;50.982;-3.222;2023-07-13T09:12:45;100969.49;;;22.65;41.37
70916;BME280;58557;50.982;-3.222;2023-07-13T09:15:04;100969.48;;;22.39;41.19
70916;BME280;58557;50.982;-3.222;2023-07-13T09:17:31;100967.31;;;22.96;40.69
70916;BME280;58557;50.982;-3.222;2023-07-13T09:19:58;100966.92;;;23.01;41.82
70916;BME280;58557;50.982;-3.222;2023-07-13T09:22:20;100967.40;;;22.69;41.10
70916;BME280;58557;50.982;-3.222;2023-07-13T09:24:53;100970.67;;;22.43;42.63
70916;BME280;58557;50.982;-3.222;2023-07-13T09:27:15;100968.95;;;23.12;40.38
70916;BME280;58557;50.982;-3.222;2023-07-13T09:29:36;100968.89;;;22.91;40.91
70916;BME280;58557;50.982;-3.222;2023-07-13T09:32:04;100968.18;;;22.83;41.64
70916;BME280;58557;50.982;-3.222;2023-07-13T09:34:27;100965.66;;;23.29;43.20
70916;BME280;58557;50.982;-3.222;2023-07-13T09:36:52;100965.86;;;24.28;40.00
70916;BME280;58557;50.982;-3.222;2023-07-13T09:39:24;100969.59;;;24.97;39.18
70916;BME280;58557;50.982;-3.222;2023-07-13T09:41:49;100970.31;;;21.88;41.47
70916;BME280;58557;50.982;-3.222;2023-07-13T09:44:10;100966.66;;;24.22;40.44
70916;BME280;58557;50.982;-3.222;2023-07-13T09:46:34;100964.17;;;22.88;38.79
70916;BME280;58557;50.982;-3.222;2023-07-13T09:49:00;100958.46;;;24.11;38.38
70916;BME280;58557;50.982;-3.222;2023-07-13T09:51:25;100957.80;;;22.85;37.99
70916;BME280;58557;50.982;-3.222;2023-07-13T09:53:51;100964.40;;;25.02;36.80
70916;BME280;58557;50.982;-3.222;2023-07-13T09:56:21;100965.34;;;24.92;38.27
70916;BME280;58557;50.982;-3.222;2023-07-13T09:58:43;100968.45;;;24.75;37.64
70916;BME280;58557;50.982;-3.222;2023-07-13T10:01:07;100968.03;;;24.02;39.06
70916;BME280;58557;50.982;-3.222;2023-07-13T10:03:34;100973.38;;;22.66;40.42
70916;BME280;58557;50.982;-3.222;2023-07-13T10:06:09;100973.67;;;24.98;36.94
70916;BME280;58557;50.982;-3.222;2023-07-13T10:08:26;100981.59;;;23.52;38.08
70916;BME280;58557;50.982;-3.222;2023-07-13T10:10:57;100988.43;;;22.55;42.97
70916;BME280;58557;50.982;-3.222;2023-07-13T10:13:26;100997.57;;;20.07;49.57
70916;BME280;58557;50.982;-3.222;2023-07-13T10:15:41;101003.82;;;21.15;50.15
70916;BME280;58557;50.982;-3.222;2023-07-13T10:18:09;101005.78;;;21.06;51.38
70916;BME280;58557;50.982;-3.222;2023-07-13T10:20:32;101006.81;;;21.54;48.94
70916;BME280;58557;50.982;-3.222;2023-07-13T10:23:01;101010.42;;;20.17;53.96
70916;BME280;58557;50.982;-3.222;2023-07-13T10:25:25;101020.82;;;20.69;54.28
70916;BME280;58557;50.982;-3.222;2023-07-13T10:27:51;101024.16;;;19.82;58.75
70916;BME280;58557;50.982;-3.222;2023-07-13T10:30:19;101020.95;;;19.79;61.37
70916;BME280;58557;50.982;-3.222;2023-07-13T10:32:40;101020.69;;;19.92;59.47
70916;BME280;58557;50.982;-3.222;2023-07-13T10:35:09;101022.05;;;20.47;54.26
70916;BME280;58557;50.982;-3.222;2023-07-13T10:37:36;101024.11;;;21.25;53.03
70916;BME280;58557;50.982;-3.222;2023-07-13T10:39:57;101020.32;;;20.92;54.68
70916;BME280;58557;50.982;-3.222;2023-07-13T10:42:30;101015.07;;;20.39;54.49
70916;BME280;58557;50.982;-3.222;2023-07-13T10:44:48;101012.19;;;20.80;53.33
70916;BME280;58557;50.982;-3.222;2023-07-13T10:47:15;101010.68;;;21.74;53.05
70916;BME280;58557;50.982;-3.222;2023-07-13T10:49:41;101005.63;;;21.69;50.08
70916;BME280;58557;50.982;-3.222;2023-07-13T10:52:06;101007.38;;;22.49;48.15
70916;BME280;58557;50.982;-3.222;2023-07-13T10:54:32;101005.74;;;22.00;48.38
70916;BME280;58557;50.982;-3.222;2023-07-13T10:57:07;101008.76;;;23.03;47.00
70916;BME280;58557;50.982;-3.222;2023-07-13T10:59:26;101003.53;;;22.56;47.30
70916;BME280;58557;50.982;-3.222;2023-07-13T11:01:54;101001.94;;;23.19;47.47
70916;BME280;58557;50.982;-3.222;2023-07-13T11:04:18;101001.17;;;23.30;46.68
70916;BME280;58557;50.982;-3.222;2023-07-13T11:06:40;101003.47;;;22.33;48.80
70916;BME280;58557;50.982;-3.222;2023-07-13T11:09:18;101002.58;;;21.85;50.08
70916;BME280;58557;50.982;-3.222;2023-07-13T11:11:37;101003.68;;;22.36;47.96
70916;BME280;58557;50.982;-3.222;2023-07-13T11:13:58;101002.93;;;22.97;46.45
70916;BME280;58557;50.982;-3.222;2023-07-13T11:18:49;100999.30;;;24.27;46.11
70916;BME280;58557;50.982;-3.222;2023-07-13T11:21:15;100996.70;;;23.96;45.04
70916;BME280;58557;50.982;-3.222;2023-07-13T11:23:42;101000.05;;;24.45;45.33
70916;BME280;58557;50.982;-3.222;2023-07-13T11:26:03;101001.72;;;24.99;44.10
70916;BME280;58557;50.982;-3.222;2023-07-13T11:28:31;101007.85;;;22.39;48.28
70916;BME280;58557;50.982;-3.222;2023-07-13T11:31:02;101003.28;;;24.58;44.53
70916;BME280;58557;50.982;-3.222;2023-07-13T11:33:22;101007.46;;;24.13;44.31
70916;BME280;58557;50.982;-3.222;2023-07-13T11:35:51;101010.49;;;22.19;49.13
70916;BME280;58557;50.982;-3.222;2023-07-13T11:38:14;101003.20;;;21.24;51.95
70916;BME280;58557;50.982;-3.222;2023-07-13T11:40:36;100998.11;;;22.29;49.48
70916;BME280;58557;50.982;-3.222;2023-07-13T11:43:02;101003.59;;;20.65;52.80
70916;BME280;58557;50.982;-3.222;2023-07-13T11:45:27;101003.85;;;21.51;53.03
70916;BME280;58557;50.982;-3.222;2023-07-13T11:47:53;101008.34;;;21.66;52.92
70916;BME280;58557;50.982;-3.222;2023-07-13T11:50:20;101012.27;;;20.34;56.03
70916;BME280;58557;50.982;-3.222;2023-07-13T11:52:45;101010.21;;;20.10;56.05
70916;BME280;58557;50.982;-3.222;2023-07-13T11:55:15;101015.65;;;20.38;56.59
70916;BME280;58557;50.982;-3.222;2023-07-13T11:57:41;101010.90;;;21.07;55.44
70916;BME280;58557;50.982;-3.222;2023-07-13T12:00:04;101009.90;;;20.96;56.23
70916;BME280;58557;50.982;-3.222;2023-07-13T12:02:29;101014.82;;;20.43;56.28
70916;BME280;58557;50.982;-3.222;2023-07-13T12:04:52;101010.84;;;20.91;55.32
70916;BME280;58557;50.982;-3.222;2023-07-13T12:07:19;101014.46;;;20.86;55.60
70916;BME280;58557;50.982;-3.222;2023-07-13T12:09:44;101013.30;;;21.37;55.97
70916;BME280;58557;50.982;-3.222;2023-07-13T12:12:12;101018.89;;;20.68;56.77
70916;BME280;58557;50.982;-3.222;2023-07-13T12:14:35;101019.59;;;21.86;55.10
70916;BME280;58557;50.982;-3.222;2023-07-13T12:17:01;101021.80;;;22.27;51.31
70916;BME280;58557;50.982;-3.222;2023-07-13T12:19:27;101020.35;;;21.95;50.49
70916;BME280;58557;50.982;-3.222;2023-07-13T12:21:54;101012.61;;;21.15;52.14
70916;BME280;58557;50.982;-3.222;2023-07-13T12:24:19;101016.16;;;21.30;53.32
70916;BME280;58557;50.982;-3.222;2023-07-13T12:26:42;101014.58;;;21.88;52.07
70916;BME280;58557;50.982;-3.222;2023-07-13T12:29:11;101011.86;;;22.19;47.85
70916;BME280;58557;50.982;-3.222;2023-07-13T12:31:36;101009.20;;;21.16;47.84
70916;BME280;58557;50.982;-3.222;2023-07-13T12:34:01;101003.53;;;21.95;45.69
70916;BME280;58557;50.982;-3.222;2023-07-13T12:36:25;101008.30;;;22.58;44.76
70916;BME280;58557;50.982;-3.222;2023-07-13T12:38:50;101012.70;;;23.71;43.88